Archer, Florida
Current Conditions -  °F | °C
As of 6:53 AM on Saturday 01 Nov 2014 (Local Time) from KGNV Reporting Station
Few Clouds Few Clouds  
Wind Chill: 45°   Ceiling: Unl
Heat Index: 49°   Visibility: 10mi
Dew Point: 35°   Wind: 10mph
Humidity: 59%   Direction: 320°NW
Pressure: 29.97"   Gusts: NA
Location:  29.53°N, 82.52°W
Report Text: KGNV 011053Z 32009KT 10SM FEW032 09/02 A2997 RMK AO2 SLP148 T00940017
Loading
Personal Weather Stations






























Interactive Weather Map
Tropical Storm Tracking
New forecast layout! Learn more

10-Day Weather Forecast

Advertisements
Track Severe Weather on mobile